createdAt,value
2022-07-25T00:02:07.329Z,19.83
2022-07-25T00:04:36.672Z,19.90
2022-07-25T00:07:09.121Z,19.99
2022-07-25T00:09:36.823Z,20.06
2022-07-25T00:12:11.724Z,20.14
2022-07-25T00:14:40.218Z,20.20
2022-07-25T00:17:08.483Z,20.21
2022-07-25T00:19:36.182Z,20.22
2022-07-25T00:22:03.984Z,20.25
2022-07-25T00:24:32.366Z,20.23
2022-07-25T00:26:59.944Z,20.23
2022-07-25T00:29:28.723Z,20.24
2022-07-25T00:31:56.355Z,20.20
2022-07-25T00:34:23.958Z,20.07
2022-07-25T00:36:51.790Z,20.01
2022-07-25T00:39:22.060Z,20.03
2022-07-25T00:41:49.842Z,20.07
2022-07-25T00:44:32.421Z,20.10
2022-07-25T00:47:01.497Z,20.11
2022-07-25T00:49:29.604Z,20.12
2022-07-25T00:51:57.309Z,20.11
2022-07-25T00:54:25.458Z,20.12
2022-07-25T00:56:53.179Z,20.12
2022-07-25T00:59:23.579Z,20.05
2022-07-25T01:01:51.563Z,19.89
2022-07-25T01:04:19.390Z,19.93
2022-07-25T01:06:47.296Z,20.00
2022-07-25T01:09:15.067Z,19.99
2022-07-25T01:11:42.801Z,19.88
2022-07-25T01:14:10.622Z,19.80
2022-07-25T01:16:38.344Z,19.73
2022-07-25T01:19:06.088Z,19.79
2022-07-25T01:21:33.761Z,19.90
2022-07-25T01:24:01.958Z,19.95
2022-07-25T01:26:30.683Z,19.89
2022-07-25T01:28:58.318Z,20.00
2022-07-25T01:31:26.415Z,20.03
2022-07-25T01:33:54.071Z,20.08
2022-07-25T01:36:21.943Z,20.08
2022-07-25T01:38:49.572Z,20.10
2022-07-25T01:41:22.469Z,20.12
2022-07-25T01:43:50.594Z,20.10
2022-07-25T01:46:18.330Z,20.06
2022-07-25T01:48:46.197Z,20.00
2022-07-25T01:51:14.639Z,20.01
2022-07-25T01:53:42.392Z,20.04
2022-07-25T01:56:13.388Z,20.05
2022-07-25T01:58:42.161Z,20.09
2022-07-25T02:01:09.840Z,20.11
2022-07-25T02:03:37.463Z,20.11
2022-07-25T02:06:06.665Z,20.15
2022-07-25T02:08:34.677Z,20.21
2022-07-25T02:11:03.359Z,20.29
2022-07-25T02:13:32.122Z,20.32
2022-07-25T02:16:00.289Z,20.20
2022-07-25T02:18:27.934Z,20.25
2022-07-25T02:20:55.551Z,20.33
2022-07-25T02:23:23.369Z,20.27
2022-07-25T02:25:51.007Z,20.28
2022-07-25T02:28:18.574Z,20.41
2022-07-25T02:30:46.697Z,20.43
2022-07-25T02:33:14.437Z,20.49
2022-07-25T02:35:42.333Z,20.54
2022-07-25T02:38:09.977Z,20.66
2022-07-25T02:40:37.996Z,20.64
2022-07-25T02:43:05.656Z,20.75
2022-07-25T02:45:35.241Z,20.79
2022-07-25T02:48:03.584Z,20.87
2022-07-25T02:50:31.347Z,20.80
2022-07-25T02:52:58.972Z,20.77
2022-07-25T02:55:27.016Z,20.77
2022-07-25T02:57:54.644Z,20.85
2022-07-25T03:00:22.890Z,20.88
2022-07-25T03:02:50.673Z,20.92
2022-07-25T03:05:18.348Z,21.05
2022-07-25T03:07:46.327Z,21.12
2022-07-25T03:10:14.447Z,21.15
2022-07-25T03:12:42.848Z,21.19
2022-07-25T03:15:12.178Z,21.28
2022-07-25T03:17:40.095Z,21.33
2022-07-25T03:20:08.309Z,21.33
2022-07-25T03:22:36.145Z,21.29
2022-07-25T03:25:04.123Z,21.32
2022-07-25T03:27:32.247Z,21.30
2022-07-25T03:30:00.309Z,21.28
2022-07-25T03:32:28.006Z,21.25
2022-07-25T03:34:55.752Z,21.35
2022-07-25T03:37:23.625Z,21.26
2022-07-25T03:39:51.325Z,21.32
2022-07-25T03:42:22.495Z,21.30
2022-07-25T03:44:54.037Z,21.35
2022-07-25T03:47:25.162Z,21.32
2022-07-25T03:49:52.954Z,21.40
2022-07-25T03:52:20.576Z,21.43
2022-07-25T03:54:48.557Z,21.30
2022-07-25T03:57:16.346Z,21.37
2022-07-25T03:59:43.958Z,21.44
2022-07-25T04:02:11.623Z,21.52
2022-07-25T04:04:39.357Z,21.49
2022-07-25T04:07:07.208Z,21.56
2022-07-25T04:09:34.976Z,21.56
2022-07-25T04:12:03.078Z,21.62
2022-07-25T04:14:31.215Z,21.46
2022-07-25T04:16:58.908Z,21.47
2022-07-25T04:19:28.894Z,21.39
2022-07-25T04:21:57.021Z,21.50
2022-07-25T04:24:25.105Z,21.46
2022-07-25T04:26:52.771Z,21.54
2022-07-25T04:29:20.691Z,21.69
2022-07-25T04:31:48.794Z,21.78
2022-07-25T04:34:16.518Z,21.80
2022-07-25T04:36:44.688Z,21.87
2022-07-25T04:39:12.540Z,21.94
2022-07-25T04:41:40.154Z,22.10
2022-07-25T04:44:09.106Z,22.12
2022-07-25T04:46:37.225Z,22.13
2022-07-25T04:49:06.113Z,22.36
2022-07-25T04:51:34.078Z,22.35
2022-07-25T04:54:01.862Z,22.39
2022-07-25T04:56:30.378Z,22.43
2022-07-25T04:59:03.121Z,22.39
2022-07-25T05:01:35.438Z,22.40
2022-07-25T05:04:05.688Z,22.46
2022-07-25T05:06:33.681Z,22.47
2022-07-25T05:09:02.146Z,22.52
2022-07-25T05:11:30.175Z,22.57
2022-07-25T05:13:59.989Z,22.68
2022-07-25T05:16:27.679Z,22.63
2022-07-25T05:18:55.344Z,22.43
2022-07-25T05:21:23.046Z,22.49
2022-07-25T05:23:50.954Z,22.60
2022-07-25T05:26:18.686Z,22.60
2022-07-25T05:28:47.604Z,22.53
2022-07-25T05:31:15.404Z,22.43
2022-07-25T05:33:42.999Z,22.39
2022-07-25T05:36:10.680Z,22.47
2022-07-25T05:38:38.945Z,22.31
2022-07-25T05:41:07.044Z,22.37
2022-07-25T05:43:34.901Z,22.36
2022-07-25T05:46:05.616Z,22.35
2022-07-25T05:48:33.372Z,22.33
2022-07-25T05:51:01.144Z,22.41
2022-07-25T05:53:29.213Z,22.63
2022-07-25T05:55:56.993Z,22.74
2022-07-25T05:58:29.403Z,22.86
2022-07-25T06:00:58.428Z,22.88
2022-07-25T06:03:31.645Z,22.92
2022-07-25T06:05:59.260Z,22.92
2022-07-25T06:08:31.206Z,22.82
2022-07-25T06:10:59.985Z,22.88
2022-07-25T06:13:28.476Z,23.05
2022-07-25T06:15:56.574Z,23.18
2022-07-25T06:18:24.603Z,23.34
2022-07-25T06:20:52.519Z,23.40
2022-07-25T06:23:20.268Z,23.43
2022-07-25T06:25:50.028Z,23.33
2022-07-25T06:28:18.089Z,23.41
2022-07-25T06:30:47.613Z,23.27
2022-07-25T06:33:18.381Z,23.29
2022-07-25T06:35:46.054Z,23.33
2022-07-25T06:38:13.729Z,23.27
2022-07-25T06:40:41.491Z,23.24
2022-07-25T06:43:09.218Z,23.24
2022-07-25T06:45:36.955Z,23.05
2022-07-25T06:48:06.436Z,22.97
2022-07-25T06:50:34.182Z,23.13
2022-07-25T06:53:01.874Z,23.27
2022-07-25T06:55:29.869Z,23.41
2022-07-25T06:57:57.578Z,23.49
2022-07-25T07:00:25.424Z,23.57
2022-07-25T07:02:58.673Z,23.48
2022-07-25T07:05:28.675Z,23.33
2022-07-25T07:07:56.325Z,23.32
2022-07-25T07:10:24.226Z,23.24
2022-07-25T07:13:08.366Z,22.99
2022-07-25T07:15:38.238Z,22.74
2022-07-25T07:18:06.869Z,22.82
2022-07-25T07:20:34.890Z,22.70
2022-07-25T07:23:02.943Z,22.69
2022-07-25T07:25:31.003Z,22.70
2022-07-25T07:27:59.267Z,22.82
2022-07-25T07:30:52.126Z,22.81
2022-07-25T07:33:14.575Z,22.62
2022-07-25T07:35:46.605Z,22.73
2022-07-25T07:38:15.003Z,22.85
2022-07-25T07:40:42.907Z,22.71
2022-07-25T07:43:11.331Z,22.86
2022-07-25T07:45:40.549Z,22.96
2022-07-25T07:48:08.345Z,23.17
2022-07-25T07:50:36.708Z,23.44
2022-07-25T07:53:04.689Z,23.76
2022-07-25T07:55:44.313Z,23.77
2022-07-25T07:58:15.792Z,23.97
2022-07-25T08:00:51.180Z,24.22
2022-07-25T08:03:20.686Z,24.00
2022-07-25T08:05:49.383Z,24.03
2022-07-25T08:08:17.178Z,24.21
2022-07-25T08:10:46.162Z,24.48
2022-07-25T08:13:17.767Z,24.41
2022-07-25T08:15:46.572Z,24.92
2022-07-25T08:18:17.527Z,25.03
2022-07-25T08:20:46.783Z,25.11
2022-07-25T08:23:14.935Z,24.97
2022-07-25T08:25:43.024Z,24.90
2022-07-25T08:28:10.845Z,25.27
2022-07-25T08:30:38.906Z,25.34
2022-07-25T08:33:10.751Z,25.24
2022-07-25T08:35:40.150Z,25.12
2022-07-25T08:38:07.832Z,24.70
2022-07-25T08:40:36.165Z,24.82
2022-07-25T08:43:04.603Z,24.74
2022-07-25T08:45:32.334Z,24.67
2022-07-25T08:48:00.204Z,24.67
2022-07-25T08:50:29.342Z,24.63
2022-07-25T08:53:16.551Z,25.08
2022-07-25T08:55:45.953Z,25.19
2022-07-25T08:58:17.378Z,25.40
2022-07-25T09:00:45.257Z,25.53
2022-07-25T09:03:13.510Z,26.10
2022-07-25T09:05:41.470Z,25.81
2022-07-25T09:08:13.809Z,25.63
2022-07-25T09:10:48.801Z,25.77
2022-07-25T09:13:18.843Z,25.70
2022-07-25T09:15:49.547Z,25.71
2022-07-25T09:18:22.514Z,25.85
2022-07-25T09:21:01.773Z,25.71
2022-07-25T09:23:37.219Z,25.91
2022-07-25T09:26:12.446Z,25.61
2022-07-25T09:28:51.425Z,25.88
2022-07-25T09:31:19.458Z,25.97
2022-07-25T09:33:59.259Z,26.17
2022-07-25T09:36:27.053Z,26.45
2022-07-25T09:39:02.083Z,26.62
2022-07-25T09:41:36.949Z,26.42
2022-07-25T09:44:05.493Z,26.57
2022-07-25T09:46:33.474Z,27.37
2022-07-25T09:49:01.351Z,27.39
2022-07-25T09:51:29.383Z,27.98
2022-07-25T09:53:57.348Z,27.99
2022-07-25T09:56:25.117Z,27.73
2022-07-25T09:58:53.093Z,27.59
2022-07-25T10:01:28.140Z,27.60
2022-07-25T10:04:15.512Z,28.29
2022-07-25T10:06:57.739Z,28.38
2022-07-25T10:09:25.537Z,28.34
2022-07-25T10:12:08.705Z,28.24
2022-07-25T10:14:36.908Z,27.99
2022-07-25T10:17:05.600Z,27.86
2022-07-25T10:19:50.194Z,27.34
2022-07-25T10:22:34.399Z,27.31
2022-07-25T10:25:19.406Z,27.04
2022-07-25T10:27:53.869Z,27.50
2022-07-25T10:30:37.798Z,27.77
2022-07-25T10:33:11.901Z,27.86
2022-07-25T10:35:39.903Z,27.61
2022-07-25T10:38:07.819Z,27.54
2022-07-25T10:40:39.157Z,27.82
2022-07-25T10:43:13.800Z,27.84
2022-07-25T10:45:43.873Z,27.71
2022-07-25T10:48:13.169Z,27.49
2022-07-25T10:50:56.292Z,27.39
2022-07-25T10:53:31.844Z,27.06
2022-07-25T10:56:05.966Z,27.00
2022-07-25T10:58:51.431Z,26.62
2022-07-25T11:01:24.233Z,26.80
2022-07-25T11:03:53.097Z,26.57
2022-07-25T11:06:42.150Z,26.62
2022-07-25T11:09:27.545Z,26.99
2022-07-25T11:11:57.441Z,27.39
2022-07-25T11:14:25.895Z,27.49
2022-07-25T11:16:55.212Z,27.18
2022-07-25T11:19:27.539Z,26.64
2022-07-25T11:21:56.406Z,27.15
2022-07-25T11:24:40.605Z,27.54
2022-07-25T11:27:12.395Z,27.85
2022-07-25T11:29:41.088Z,27.89
2022-07-25T11:32:11.362Z,27.89
2022-07-25T11:34:44.271Z,27.55
2022-07-25T11:37:12.714Z,27.84
2022-07-25T11:39:44.717Z,27.95
2022-07-25T11:42:19.512Z,27.79
2022-07-25T11:44:49.025Z,27.73
2022-07-25T11:47:27.034Z,27.55
2022-07-25T11:49:59.989Z,27.57
2022-07-25T11:52:36.325Z,27.61
2022-07-25T11:55:12.157Z,27.98
2022-07-25T11:57:44.594Z,27.70
2022-07-25T12:00:15.592Z,28.04
2022-07-25T12:02:43.404Z,28.16
2022-07-25T12:05:13.177Z,28.66
2022-07-25T12:07:48.332Z,28.38
2022-07-25T12:10:17.656Z,28.33
2022-07-25T12:12:54.872Z,28.17
2022-07-25T12:15:31.442Z,28.29
2022-07-25T12:18:02.975Z,28.75
2022-07-25T12:20:34.464Z,28.81
2022-07-25T12:23:05.246Z,28.39
2022-07-25T12:25:34.142Z,28.15
2022-07-25T12:28:02.059Z,28.31
2022-07-25T12:30:32.152Z,28.19
2022-07-25T12:33:00.310Z,27.97
2022-07-25T12:35:28.759Z,27.80
2022-07-25T12:37:56.808Z,28.32
2022-07-25T12:40:24.685Z,28.36
2022-07-25T12:42:52.475Z,28.78
2022-07-25T12:45:20.245Z,29.16
2022-07-25T12:47:48.124Z,29.19
2022-07-25T12:50:16.335Z,29.72
2022-07-25T12:52:44.632Z,29.03
2022-07-25T12:55:14.415Z,28.41
2022-07-25T12:57:42.284Z,28.56
2022-07-25T13:00:13.081Z,28.83
2022-07-25T13:02:40.881Z,29.63
2022-07-25T13:05:08.876Z,29.01
2022-07-25T13:07:37.402Z,29.40
2022-07-25T13:10:05.777Z,28.95
2022-07-25T13:12:33.890Z,28.90
2022-07-25T13:15:04.234Z,29.31
2022-07-25T13:17:32.247Z,29.84
2022-07-25T13:20:01.130Z,30.14
2022-07-25T13:22:29.326Z,30.76
2022-07-25T13:24:56.965Z,30.51
2022-07-25T13:27:24.731Z,30.86
2022-07-25T13:29:54.762Z,30.77
2022-07-25T13:32:22.908Z,30.94
2022-07-25T13:34:50.762Z,30.41
2022-07-25T13:37:18.806Z,29.65
2022-07-25T13:39:46.544Z,29.21
2022-07-25T13:42:14.214Z,29.01
2022-07-25T13:44:42.229Z,29.02
2022-07-25T13:47:09.913Z,28.56
2022-07-25T13:49:37.923Z,27.99
2022-07-25T13:52:06.409Z,27.84
2022-07-25T13:54:34.305Z,27.91
2022-07-25T13:57:03.249Z,28.07
2022-07-25T13:59:33.493Z,27.55
2022-07-25T14:02:01.222Z,27.32
2022-07-25T14:04:31.957Z,27.03
2022-07-25T14:06:59.854Z,26.75
2022-07-25T14:09:28.338Z,27.04
2022-07-25T14:12:00.457Z,27.49
2022-07-25T14:14:28.319Z,27.95
2022-07-25T14:16:56.226Z,28.60
2022-07-25T14:19:24.351Z,28.46
2022-07-25T14:21:52.028Z,28.93
2022-07-25T14:24:19.682Z,29.46
2022-07-25T14:26:47.692Z,29.64
2022-07-25T14:29:15.701Z,29.70
2022-07-25T14:31:43.492Z,29.91
2022-07-25T14:34:11.332Z,30.12
2022-07-25T14:36:39.433Z,29.83
2022-07-25T14:39:07.427Z,29.82
2022-07-25T14:41:36.779Z,30.02
2022-07-25T14:44:04.645Z,29.87
2022-07-25T14:46:34.505Z,29.87
2022-07-25T14:49:04.742Z,30.23
2022-07-25T14:51:33.198Z,30.27
2022-07-25T14:54:00.808Z,30.74
2022-07-25T14:56:28.610Z,30.72
2022-07-25T14:58:56.254Z,30.58
2022-07-25T15:01:25.697Z,30.65
2022-07-25T15:03:56.230Z,29.56
2022-07-25T15:06:28.917Z,30.01
2022-07-25T15:08:57.782Z,29.65
2022-07-25T15:11:29.527Z,29.21
2022-07-25T15:13:58.513Z,28.38
2022-07-25T15:16:26.311Z,28.33
2022-07-25T15:19:15.309Z,28.89
2022-07-25T15:21:41.678Z,29.10
2022-07-25T15:24:10.276Z,29.21
2022-07-25T15:26:38.612Z,29.21
2022-07-25T15:29:08.231Z,28.68
2022-07-25T15:31:37.078Z,29.07
2022-07-25T15:34:04.758Z,29.56
2022-07-25T15:36:32.518Z,28.96
2022-07-25T15:39:00.083Z,29.37
2022-07-25T15:41:27.755Z,28.88
2022-07-25T15:43:55.393Z,29.20
2022-07-25T15:46:23.500Z,29.29
2022-07-25T15:48:51.183Z,29.32
2022-07-25T15:51:21.633Z,28.18
2022-07-25T15:53:49.319Z,28.60
2022-07-25T15:56:16.957Z,28.46
2022-07-25T15:58:44.741Z,27.63
2022-07-25T16:01:13.245Z,27.48
2022-07-25T16:03:41.138Z,26.92
2022-07-25T16:06:09.236Z,26.78
2022-07-25T16:08:37.283Z,26.50
2022-07-25T16:11:07.778Z,26.16
2022-07-25T16:13:36.229Z,26.81
2022-07-25T16:16:04.445Z,27.14
2022-07-25T16:18:33.574Z,26.99
2022-07-25T16:21:01.641Z,26.73
2022-07-25T16:23:36.192Z,26.52
2022-07-25T16:26:06.213Z,26.56
2022-07-25T16:28:36.986Z,26.45
2022-07-25T16:31:05.802Z,26.37
2022-07-25T16:33:33.529Z,26.10
2022-07-25T16:36:01.302Z,25.95
2022-07-25T16:38:29.212Z,25.77
2022-07-25T16:40:56.966Z,25.57
2022-07-25T16:43:24.578Z,25.53
2022-07-25T16:45:52.922Z,25.53
2022-07-25T16:48:20.604Z,25.29
2022-07-25T16:50:48.750Z,25.30
2022-07-25T16:53:16.960Z,25.37
2022-07-25T16:55:44.638Z,25.41
2022-07-25T16:58:12.389Z,25.35
2022-07-25T17:00:41.975Z,25.49
2022-07-25T17:03:11.414Z,25.59
2022-07-25T17:05:40.491Z,25.64
2022-07-25T17:08:08.185Z,25.40
2022-07-25T17:10:35.872Z,25.29
2022-07-25T17:13:03.705Z,25.11
2022-07-25T17:15:31.474Z,24.90
2022-07-25T17:17:59.550Z,24.81
2022-07-25T17:20:27.357Z,24.65
2022-07-25T17:22:54.962Z,24.36
2022-07-25T17:25:22.862Z,24.34
2022-07-25T17:27:50.469Z,24.29
2022-07-25T17:30:18.185Z,24.23
2022-07-25T17:32:45.883Z,24.09
2022-07-25T17:35:13.617Z,24.00
2022-07-25T17:37:41.772Z,23.81
2022-07-25T17:40:10.005Z,23.68
2022-07-25T17:42:41.798Z,23.50
2022-07-25T17:45:12.570Z,23.31
2022-07-25T17:47:40.539Z,23.26
2022-07-25T17:50:08.498Z,23.02
2022-07-25T17:52:36.162Z,23.02
2022-07-25T17:55:04.251Z,22.84
2022-07-25T17:57:33.138Z,22.80
2022-07-25T18:00:00.817Z,22.77
2022-07-25T18:02:40.419Z,22.63
2022-07-25T18:05:08.591Z,22.59
2022-07-25T18:07:40.881Z,22.50
2022-07-25T18:10:08.823Z,22.40
2022-07-25T18:12:36.482Z,22.33
2022-07-25T18:15:04.923Z,22.24
2022-07-25T18:17:32.841Z,22.19
2022-07-25T18:20:00.662Z,22.20
2022-07-25T18:22:28.368Z,22.08
2022-07-25T18:24:56.205Z,22.07
2022-07-25T18:27:27.998Z,22.03
2022-07-25T18:29:56.164Z,21.87
2022-07-25T18:32:23.783Z,21.82
2022-07-25T18:34:51.446Z,21.75
2022-07-25T18:37:19.582Z,21.71
2022-07-25T18:39:47.209Z,21.70
2022-07-25T18:42:14.971Z,21.66
2022-07-25T18:44:42.878Z,21.62
2022-07-25T18:47:10.561Z,21.54
2022-07-25T18:49:39.439Z,21.45
2022-07-25T18:52:07.034Z,21.39
2022-07-25T18:54:34.934Z,21.41
2022-07-25T18:57:03.435Z,21.40
2022-07-25T18:59:31.237Z,21.34
2022-07-25T19:01:58.884Z,21.29
2022-07-25T19:04:26.594Z,21.18
2022-07-25T19:06:54.661Z,21.17
2022-07-25T19:09:22.438Z,21.09
2022-07-25T19:11:53.183Z,21.05
2022-07-25T19:14:24.126Z,21.04
2022-07-25T19:16:57.771Z,20.95
2022-07-25T19:19:25.856Z,20.83
2022-07-25T19:21:53.738Z,20.84
2022-07-25T19:24:21.619Z,20.82
2022-07-25T19:26:49.965Z,20.86
2022-07-25T19:29:18.159Z,20.87
2022-07-25T19:31:46.023Z,20.86
2022-07-25T19:34:13.935Z,20.86
2022-07-25T19:36:43.730Z,20.85
2022-07-25T19:39:12.568Z,20.85
2022-07-25T19:41:44.704Z,20.91
2022-07-25T19:44:15.159Z,21.04
2022-07-25T19:46:42.999Z,21.13
2022-07-25T19:49:11.035Z,21.19
2022-07-25T19:51:39.771Z,21.22
2022-07-25T19:54:09.137Z,21.13
2022-07-25T19:56:38.261Z,21.10
2022-07-25T19:59:06.448Z,21.08
2022-07-25T20:01:36.998Z,21.08
2022-07-25T20:04:05.765Z,20.99
2022-07-25T20:09:02.087Z,20.88
2022-07-25T20:11:29.894Z,20.98
2022-07-25T20:14:00.830Z,21.01
2022-07-25T20:16:30.862Z,21.08
2022-07-25T20:18:58.745Z,21.08
2022-07-25T20:21:27.713Z,21.03
2022-07-25T20:23:55.441Z,21.01
2022-07-25T20:26:23.792Z,20.92
2022-07-25T20:28:51.637Z,20.87
2022-07-25T20:31:22.352Z,20.80
2022-07-25T20:33:51.065Z,20.66
2022-07-25T20:36:19.975Z,20.52
2022-07-25T20:38:47.731Z,20.54
2022-07-25T20:41:16.265Z,20.49
2022-07-25T20:43:44.324Z,20.41
2022-07-25T20:46:12.569Z,20.31
2022-07-25T20:48:40.528Z,20.21
2022-07-25T20:51:08.221Z,20.26
2022-07-25T20:53:35.881Z,20.24
2022-07-25T20:56:03.667Z,20.14
2022-07-25T20:58:31.629Z,20.11
2022-07-25T21:01:00.546Z,20.06
2022-07-25T21:03:28.313Z,20.03
2022-07-25T21:05:56.765Z,19.93
2022-07-25T21:08:24.620Z,19.87
2022-07-25T21:10:53.451Z,19.81
2022-07-25T21:13:21.494Z,19.84
2022-07-25T21:15:49.078Z,19.83
2022-07-25T21:18:16.835Z,19.80
2022-07-25T21:20:46.910Z,19.77
2022-07-25T21:23:14.869Z,19.74
2022-07-25T21:25:42.578Z,19.70
2022-07-25T21:28:10.288Z,19.65
2022-07-25T21:30:41.216Z,19.64
2022-07-25T21:33:14.313Z,19.62
2022-07-25T21:35:49.337Z,19.59
2022-07-25T21:38:26.977Z,19.52
2022-07-25T21:40:56.441Z,19.52
2022-07-25T21:43:24.451Z,19.46
2022-07-25T21:45:52.325Z,19.41
2022-07-25T21:48:40.222Z,19.34
2022-07-25T21:51:14.101Z,19.29
2022-07-25T21:53:54.130Z,19.25
2022-07-25T21:56:22.389Z,19.21
2022-07-25T21:58:50.110Z,19.19
2022-07-25T22:01:22.413Z,19.19
2022-07-25T22:03:52.434Z,19.18
2022-07-25T22:06:20.139Z,19.10
2022-07-25T22:08:51.584Z,19.07
2022-07-25T22:11:39.092Z,19.06
2022-07-25T22:14:07.612Z,18.99
2022-07-25T22:16:35.577Z,18.91
2022-07-25T22:19:03.582Z,18.93
2022-07-25T22:21:33.054Z,18.93
2022-07-25T22:24:00.681Z,18.92
2022-07-25T22:26:28.289Z,18.87
2022-07-25T22:28:56.171Z,18.88
2022-07-25T22:31:24.035Z,18.81
2022-07-25T22:33:51.965Z,18.81
2022-07-25T22:36:19.645Z,18.77
2022-07-25T22:38:47.259Z,18.73
2022-07-25T22:41:14.929Z,18.68
2022-07-25T22:43:57.869Z,18.58
2022-07-25T22:46:30.494Z,18.51
2022-07-25T22:48:58.518Z,18.45
2022-07-25T22:51:26.820Z,18.48
2022-07-25T22:53:54.859Z,18.45
2022-07-25T22:56:22.840Z,18.38
2022-07-25T22:58:50.524Z,18.28
2022-07-25T23:01:18.356Z,18.26
2022-07-25T23:03:47.008Z,18.27
2022-07-25T23:06:14.653Z,18.24
2022-07-25T23:08:42.513Z,18.19
2022-07-25T23:11:12.160Z,18.25
2022-07-25T23:13:39.832Z,18.29
2022-07-25T23:16:12.655Z,18.32
2022-07-25T23:18:41.187Z,18.33
2022-07-25T23:21:09.341Z,18.28
2022-07-25T23:23:37.138Z,18.24
2022-07-25T23:26:05.035Z,18.20
2022-07-25T23:28:33.007Z,18.19
2022-07-25T23:31:01.598Z,18.17
2022-07-25T23:33:30.790Z,18.17
2022-07-25T23:35:58.659Z,18.13
2022-07-25T23:38:26.562Z,18.02
2022-07-25T23:40:56.970Z,18.07
2022-07-25T23:43:54.387Z,18.00
2022-07-25T23:46:12.814Z,18.00
2022-07-25T23:48:41.039Z,18.01
2022-07-25T23:51:08.767Z,18.02
2022-07-25T23:53:36.939Z,18.00
2022-07-25T23:56:05.240Z,18.04
2022-07-25T23:58:33.615Z,18.03
